OAL710 LGTS-LGIR
Flight info
| Callsign | OAL710 |
|---|---|
| Flight time | 1h 1m |
| Altitude | 31000 |
| Route | LEKPO L617 IBIDI UL617 KEA UL607 GIVIS T514 XAVIS |
| Aircraft | B738/M-SDGIJ1LRWY/SB1 |
Departure
| Time | 2026-05-04 20:40 |
|---|---|
| Airport | Thessaloniki Macedonia International Airport (LGTS) |
Arrival
| Time | 2026-05-04 21:41 |
|---|---|
| Airport | Heraklion International Nikos Kazantzakis Airport (LGIR) |
| Time | Latitude | Longitude | Altitude | Speed | Heading |
|---|---|---|---|---|---|
| 2026-05-04 20:10 | 40.52428 | 22.97422 | 7 ft | 0 kts | 48° |
| 2026-05-04 20:28 | 40.52427 | 22.97422 | 7 ft | 0 kts | 48° |
| 2026-05-04 20:29 | 40.52424 | 22.97416 | 7 ft | 2 kts | 45° |
| 2026-05-04 20:29 | 40.52412 | 22.97404 | 7 ft | 2 kts | 29° |
| 2026-05-04 20:29 | 40.52398 | 22.97396 | 7 ft | 2 kts | 14° |
| 2026-05-04 20:30 | 40.52383 | 22.97393 | 7 ft | 2 kts | 360° |
| 2026-05-04 20:30 | 40.52369 | 22.97396 | 7 ft | 2 kts | 346° |
| 2026-05-04 20:30 | 40.52354 | 22.97402 | 7 ft | 2 kts | 331° |
| 2026-05-04 20:30 | 40.52343 | 22.97413 | 7 ft | 0 kts | 318° |
| 2026-05-04 20:31 | 40.52338 | 22.97418 | 7 ft | 0 kts | 315° |
| 2026-05-04 20:31 | 40.52338 | 22.97419 | 7 ft | 0 kts | 315° |
| 2026-05-04 20:33 | 40.52340 | 22.97417 | 7 ft | 1 kts | 315° |
| 2026-05-04 20:34 | 40.52371 | 22.97376 | 7 ft | 10 kts | 310° |
| 2026-05-04 20:34 | 40.52387 | 22.97262 | 6 ft | 14 kts | 259° |
| 2026-05-04 20:34 | 40.52333 | 22.97170 | 6 ft | 13 kts | 179° |
| 2026-05-04 20:34 | 40.52240 | 22.97191 | 6 ft | 13 kts | 166° |
| 2026-05-04 20:35 | 40.52150 | 22.97224 | 7 ft | 12 kts | 157° |
| 2026-05-04 20:35 | 40.52101 | 22.97315 | 7 ft | 12 kts | 107° |
| 2026-05-04 20:35 | 40.52081 | 22.97420 | 8 ft | 12 kts | 103° |
| 2026-05-04 20:35 | 40.52058 | 22.97542 | 9 ft | 15 kts | 104° |
| 2026-05-04 20:36 | 40.52029 | 22.97692 | 10 ft | 18 kts | 103° |
| 2026-05-04 20:36 | 40.51999 | 22.97849 | 11 ft | 17 kts | 105° |
| 2026-05-04 20:36 | 40.51970 | 22.98002 | 12 ft | 16 kts | 103° |
| 2026-05-04 20:36 | 40.51944 | 22.98141 | 13 ft | 15 kts | 104° |
| 2026-05-04 20:37 | 40.51917 | 22.98286 | 14 ft | 16 kts | 104° |
| 2026-05-04 20:37 | 40.51888 | 22.98434 | 14 ft | 16 kts | 103° |
| 2026-05-04 20:37 | 40.51860 | 22.98581 | 15 ft | 15 kts | 104° |
| 2026-05-04 20:37 | 40.51826 | 22.98695 | 16 ft | 9 kts | 143° |
| 2026-05-04 20:38 | 40.51759 | 22.98694 | 16 ft | 9 kts | 194° |
| 2026-05-04 20:38 | 40.51700 | 22.98670 | 16 ft | 7 kts | 216° |
| 2026-05-04 20:38 | 40.51685 | 22.98613 | 16 ft | 7 kts | 281° |
| 2026-05-04 20:38 | 40.51696 | 22.98546 | 16 ft | 7 kts | 284° |
| 2026-05-04 20:39 | 40.51725 | 22.98403 | 15 ft | 42 kts | 283° |
| 2026-05-04 20:39 | 40.51851 | 22.97717 | 10 ft | 110 kts | 284° |
| 2026-05-04 20:39 | 40.52090 | 22.96468 | 8 ft | 165 kts | 284° |
| 2026-05-04 20:39 | 40.52384 | 22.94976 | 484 ft | 171 kts | 285° |
| 2026-05-04 20:40 | 40.52687 | 22.93518 | 1202 ft | 169 kts | 287° |
| 2026-05-04 20:40 | 40.53008 | 22.91997 | 1742 ft | 178 kts | 287° |
| 2026-05-04 20:40 | 40.53340 | 22.90402 | 2224 ft | 188 kts | 287° |
| 2026-05-04 20:40 | 40.53701 | 22.88662 | 2630 ft | 205 kts | 287° |
| 2026-05-04 20:41 | 40.54088 | 22.86806 | 3114 ft | 219 kts | 288° |
| 2026-05-04 20:41 | 40.54509 | 22.84785 | 3593 ft | 235 kts | 288° |
| 2026-05-04 20:41 | 40.54956 | 22.82642 | 4073 ft | 250 kts | 288° |
| 2026-05-04 20:41 | 40.55330 | 22.80371 | 4586 ft | 264 kts | 275° |
| 2026-05-04 20:42 | 40.54924 | 22.77977 | 5260 ft | 276 kts | 243° |
| 2026-05-04 20:42 | 40.53616 | 22.76106 | 5936 ft | 285 kts | 213° |
| 2026-05-04 20:42 | 40.51753 | 22.75228 | 6642 ft | 289 kts | 185° |
| 2026-05-04 20:42 | 40.49721 | 22.75227 | 7435 ft | 289 kts | 174° |
| 2026-05-04 20:43 | 40.47720 | 22.75650 | 8184 ft | 290 kts | 162° |
| 2026-05-04 20:43 | 40.45822 | 22.76492 | 8937 ft | 292 kts | 154° |
| 2026-05-04 20:43 | 40.43979 | 22.77673 | 9720 ft | 293 kts | 147° |
| 2026-05-04 20:43 | 40.42246 | 22.79087 | 10486 ft | 296 kts | 142° |
| 2026-05-04 20:44 | 40.40581 | 22.80800 | 10917 ft | 310 kts | 134° |
| 2026-05-04 20:44 | 40.39072 | 22.82900 | 11343 ft | 324 kts | 126° |
| 2026-05-04 20:44 | 40.37732 | 22.85369 | 11777 ft | 338 kts | 118° |
| 2026-05-04 20:44 | 40.36612 | 22.88090 | 12354 ft | 345 kts | 111° |
| 2026-05-04 20:45 | 40.35793 | 22.91046 | 13072 ft | 349 kts | 102° |
| 2026-05-04 20:45 | 40.35332 | 22.94206 | 13839 ft | 352 kts | 94° |
| 2026-05-04 20:45 | 40.35170 | 22.97396 | 14660 ft | 353 kts | 90° |
| 2026-05-04 20:45 | 40.34719 | 23.00580 | 15436 ft | 363 kts | 108° |
| 2026-05-04 20:46 | 40.33444 | 23.03473 | 16248 ft | 371 kts | 126° |
| 2026-05-04 20:46 | 40.31586 | 23.05824 | 17000 ft | 380 kts | 140° |
| 2026-05-04 20:46 | 40.29293 | 23.07640 | 17717 ft | 387 kts | 151° |
| 2026-05-04 20:46 | 40.26820 | 23.09057 | 18433 ft | 393 kts | 155° |
| 2026-05-04 20:47 | 40.24249 | 23.10320 | 19160 ft | 397 kts | 158° |
| 2026-05-04 20:47 | 40.21590 | 23.11539 | 19870 ft | 401 kts | 158° |
| 2026-05-04 20:47 | 40.18961 | 23.12725 | 20549 ft | 405 kts | 159° |
| 2026-05-04 20:47 | 40.16285 | 23.13935 | 21239 ft | 408 kts | 159° |
| 2026-05-04 20:48 | 40.13582 | 23.15166 | 21909 ft | 411 kts | 159° |
| 2026-05-04 20:48 | 40.10855 | 23.16418 | 22546 ft | 415 kts | 159° |
| 2026-05-04 20:48 | 40.08132 | 23.17706 | 23172 ft | 418 kts | 158° |
| 2026-05-04 20:48 | 40.05416 | 23.19028 | 23736 ft | 422 kts | 158° |
| 2026-05-04 20:49 | 40.02645 | 23.20396 | 24357 ft | 425 kts | 158° |
| 2026-05-04 20:49 | 39.99845 | 23.21783 | 24978 ft | 428 kts | 158° |
| 2026-05-04 20:49 | 39.97069 | 23.23159 | 25533 ft | 431 kts | 158° |
| 2026-05-04 20:49 | 39.94237 | 23.24559 | 26223 ft | 432 kts | 159° |
| 2026-05-04 20:50 | 39.91407 | 23.25953 | 26765 ft | 435 kts | 159° |
| 2026-05-04 20:50 | 39.88573 | 23.27347 | 27467 ft | 435 kts | 159° |
| 2026-05-04 20:50 | 39.85741 | 23.28738 | 28302 ft | 430 kts | 159° |
| 2026-05-04 20:50 | 39.82934 | 23.30116 | 29014 ft | 428 kts | 159° |
| 2026-05-04 20:51 | 39.80126 | 23.31492 | 29656 ft | 427 kts | 160° |
| 2026-05-04 20:51 | 39.77327 | 23.32861 | 30257 ft | 427 kts | 160° |
| 2026-05-04 20:51 | 39.74539 | 23.34224 | 30857 ft | 425 kts | 159° |
| 2026-05-04 20:51 | 39.71744 | 23.35587 | 31094 ft | 430 kts | 159° |
| 2026-05-04 20:52 | 39.66117 | 23.38332 | 31096 ft | 428 kts | 159° |
| 2026-05-04 20:52 | 39.60559 | 23.41039 | 31095 ft | 429 kts | 159° |
| 2026-05-04 20:53 | 39.54961 | 23.43760 | 31096 ft | 428 kts | 159° |
| 2026-05-04 20:53 | 39.49367 | 23.46468 | 31096 ft | 429 kts | 159° |
| 2026-05-04 20:54 | 39.43722 | 23.49195 | 31095 ft | 430 kts | 159° |
| 2026-05-04 20:54 | 39.38099 | 23.51912 | 31095 ft | 431 kts | 159° |
| 2026-05-04 20:55 | 39.32478 | 23.54633 | 31095 ft | 431 kts | 159° |
| 2026-05-04 20:55 | 39.26808 | 23.57373 | 31094 ft | 431 kts | 159° |
| 2026-05-04 20:56 | 39.21169 | 23.60085 | 31092 ft | 432 kts | 159° |
| 2026-05-04 20:56 | 39.15515 | 23.62758 | 31091 ft | 431 kts | 160° |
| 2026-05-04 20:57 | 39.09782 | 23.65244 | 31094 ft | 431 kts | 162° |
| 2026-05-04 20:57 | 39.04075 | 23.67649 | 31094 ft | 432 kts | 162° |
| 2026-05-04 20:58 | 38.98325 | 23.70078 | 31094 ft | 434 kts | 162° |
| 2026-05-04 20:58 | 38.92545 | 23.72533 | 31099 ft | 433 kts | 161° |
| 2026-05-04 20:59 | 38.86769 | 23.74993 | 31100 ft | 436 kts | 161° |
| 2026-05-04 20:59 | 38.81004 | 23.77448 | 31093 ft | 434 kts | 161° |
| 2026-05-04 21:00 | 38.75222 | 23.79907 | 31095 ft | 436 kts | 161° |
| 2026-05-04 21:00 | 38.69445 | 23.82361 | 31097 ft | 437 kts | 161° |
| 2026-05-04 21:01 | 38.63569 | 23.84854 | 31100 ft | 436 kts | 161° |
| 2026-05-04 21:01 | 38.57760 | 23.87314 | 31101 ft | 436 kts | 161° |
| 2026-05-04 21:02 | 38.51960 | 23.89765 | 31105 ft | 437 kts | 161° |
| 2026-05-04 21:02 | 38.46160 | 23.92213 | 31112 ft | 437 kts | 161° |
| 2026-05-04 21:03 | 38.40364 | 23.94655 | 31127 ft | 437 kts | 161° |
| 2026-05-04 21:03 | 38.34537 | 23.97105 | 31118 ft | 435 kts | 161° |
| 2026-05-04 21:04 | 38.28761 | 23.99530 | 31125 ft | 438 kts | 161° |
| 2026-05-04 21:04 | 38.22966 | 24.01959 | 31127 ft | 436 kts | 161° |
| 2026-05-04 21:05 | 38.17182 | 24.04378 | 31133 ft | 436 kts | 161° |
| 2026-05-04 21:05 | 38.11370 | 24.06807 | 31132 ft | 436 kts | 161° |
| 2026-05-04 21:06 | 38.05557 | 24.09230 | 31131 ft | 437 kts | 161° |
| 2026-05-04 21:06 | 37.99746 | 24.11650 | 31132 ft | 437 kts | 161° |
| 2026-05-04 21:07 | 37.93940 | 24.14062 | 31135 ft | 439 kts | 161° |
| 2026-05-04 21:07 | 37.88100 | 24.16486 | 31125 ft | 438 kts | 161° |
| 2026-05-04 21:08 | 37.82246 | 24.18911 | 31130 ft | 442 kts | 161° |
| 2026-05-04 21:08 | 37.76383 | 24.21336 | 31136 ft | 442 kts | 161° |
| 2026-05-04 21:09 | 37.70517 | 24.23758 | 31129 ft | 442 kts | 161° |
| 2026-05-04 21:09 | 37.64614 | 24.26190 | 31128 ft | 444 kts | 161° |
| 2026-05-04 21:10 | 37.58723 | 24.28637 | 31128 ft | 445 kts | 160° |
| 2026-05-04 21:10 | 37.53076 | 24.31821 | 31128 ft | 444 kts | 150° |
| 2026-05-04 21:11 | 37.47739 | 24.35839 | 31126 ft | 443 kts | 146° |
| 2026-05-04 21:11 | 37.42521 | 24.40039 | 31129 ft | 445 kts | 146° |
| 2026-05-04 21:12 | 37.37268 | 24.44256 | 31123 ft | 445 kts | 146° |
| 2026-05-04 21:12 | 37.32012 | 24.48420 | 31127 ft | 445 kts | 146° |
| 2026-05-04 21:13 | 37.26711 | 24.52582 | 31127 ft | 447 kts | 146° |
| 2026-05-04 21:13 | 37.21390 | 24.56739 | 31127 ft | 446 kts | 147° |
| 2026-05-04 21:14 | 37.16067 | 24.60885 | 31133 ft | 450 kts | 147° |
| 2026-05-04 21:14 | 37.10724 | 24.65039 | 31124 ft | 445 kts | 147° |
| 2026-05-04 21:15 | 37.05403 | 24.69169 | 31135 ft | 450 kts | 147° |
| 2026-05-04 21:15 | 37.00052 | 24.73316 | 31133 ft | 450 kts | 147° |
| 2026-05-04 21:16 | 36.94709 | 24.77449 | 31135 ft | 450 kts | 147° |
| 2026-05-04 21:16 | 36.89376 | 24.81570 | 31125 ft | 448 kts | 147° |
| 2026-05-04 21:17 | 36.84054 | 24.85688 | 31132 ft | 450 kts | 147° |
| 2026-05-04 21:17 | 36.78732 | 24.89803 | 31126 ft | 450 kts | 147° |
| 2026-05-04 21:18 | 36.76072 | 24.91856 | 31000 ft | 447 kts | 147° |
| 2026-05-04 21:18 | 36.73426 | 24.93896 | 30630 ft | 441 kts | 147° |
| 2026-05-04 21:18 | 36.70831 | 24.95895 | 30231 ft | 435 kts | 147° |
| 2026-05-04 21:18 | 36.68285 | 24.97853 | 29846 ft | 428 kts | 147° |
| 2026-05-04 21:19 | 36.65740 | 24.99808 | 29363 ft | 424 kts | 147° |
| 2026-05-04 21:19 | 36.63226 | 25.01737 | 28873 ft | 420 kts | 147° |
| 2026-05-04 21:19 | 36.60753 | 25.03632 | 28249 ft | 420 kts | 147° |
| 2026-05-04 21:19 | 36.58267 | 25.05536 | 27584 ft | 420 kts | 147° |
| 2026-05-04 21:20 | 36.55781 | 25.07438 | 27060 ft | 417 kts | 147° |
| 2026-05-04 21:20 | 36.53317 | 25.09322 | 26516 ft | 414 kts | 147° |
| 2026-05-04 21:20 | 36.50865 | 25.11195 | 26024 ft | 410 kts | 147° |
| 2026-05-04 21:20 | 36.48470 | 25.13023 | 25516 ft | 407 kts | 147° |
| 2026-05-04 21:21 | 36.46030 | 25.14883 | 25024 ft | 403 kts | 146° |
| 2026-05-04 21:21 | 36.43652 | 25.16695 | 24538 ft | 400 kts | 146° |
| 2026-05-04 21:21 | 36.41295 | 25.18491 | 24035 ft | 397 kts | 146° |
| 2026-05-04 21:21 | 36.38929 | 25.20292 | 23528 ft | 394 kts | 146° |
| 2026-05-04 21:22 | 36.36621 | 25.22048 | 23083 ft | 391 kts | 146° |
| 2026-05-04 21:22 | 36.34293 | 25.23817 | 22578 ft | 389 kts | 146° |
| 2026-05-04 21:22 | 36.31987 | 25.25569 | 22080 ft | 386 kts | 146° |
| 2026-05-04 21:22 | 36.29689 | 25.27315 | 21571 ft | 385 kts | 146° |
| 2026-05-04 21:23 | 36.27426 | 25.29032 | 21059 ft | 384 kts | 146° |
| 2026-05-04 21:23 | 36.25154 | 25.30754 | 20578 ft | 381 kts | 146° |
| 2026-05-04 21:23 | 36.22890 | 25.32469 | 20100 ft | 379 kts | 146° |
| 2026-05-04 21:23 | 36.20649 | 25.34166 | 19637 ft | 376 kts | 146° |
| 2026-05-04 21:24 | 36.18418 | 25.35853 | 19136 ft | 375 kts | 146° |
| 2026-05-04 21:24 | 36.16181 | 25.37544 | 18650 ft | 373 kts | 146° |
| 2026-05-04 21:24 | 36.13965 | 25.39197 | 18182 ft | 371 kts | 147° |
| 2026-05-04 21:24 | 36.11700 | 25.40694 | 17749 ft | 368 kts | 153° |
| 2026-05-04 21:25 | 36.09322 | 25.41896 | 17298 ft | 367 kts | 159° |
| 2026-05-04 21:25 | 36.06914 | 25.42892 | 16860 ft | 364 kts | 161° |
| 2026-05-04 21:25 | 36.04517 | 25.43799 | 16429 ft | 361 kts | 162° |
| 2026-05-04 21:25 | 36.02125 | 25.44693 | 15970 ft | 359 kts | 162° |
| 2026-05-04 21:26 | 35.99728 | 25.45605 | 15549 ft | 355 kts | 161° |
| 2026-05-04 21:26 | 35.97359 | 25.46527 | 15094 ft | 353 kts | 161° |
| 2026-05-04 21:26 | 35.95055 | 25.47439 | 14730 ft | 348 kts | 161° |
| 2026-05-04 21:26 | 35.92736 | 25.48366 | 14270 ft | 347 kts | 161° |
| 2026-05-04 21:27 | 35.90448 | 25.49284 | 13870 ft | 343 kts | 161° |
| 2026-05-04 21:27 | 35.88184 | 25.50194 | 13431 ft | 342 kts | 161° |
| 2026-05-04 21:27 | 35.85918 | 25.51104 | 12991 ft | 340 kts | 161° |
| 2026-05-04 21:27 | 35.83678 | 25.52003 | 12563 ft | 338 kts | 161° |
| 2026-05-04 21:28 | 35.81451 | 25.52896 | 12106 ft | 337 kts | 161° |
| 2026-05-04 21:28 | 35.79219 | 25.53790 | 11704 ft | 334 kts | 161° |
| 2026-05-04 21:28 | 35.77000 | 25.54678 | 11262 ft | 332 kts | 161° |
| 2026-05-04 21:28 | 35.74826 | 25.55547 | 10931 ft | 327 kts | 161° |
| 2026-05-04 21:29 | 35.72666 | 25.56410 | 10763 ft | 316 kts | 161° |
| 2026-05-04 21:29 | 35.70621 | 25.57238 | 10604 ft | 306 kts | 159° |
| 2026-05-04 21:29 | 35.68705 | 25.58325 | 10304 ft | 301 kts | 147° |
| 2026-05-04 21:29 | 35.67008 | 25.59814 | 9914 ft | 300 kts | 139° |
| 2026-05-04 21:30 | 35.65416 | 25.61463 | 9560 ft | 298 kts | 137° |
| 2026-05-04 21:30 | 35.63826 | 25.63148 | 9189 ft | 297 kts | 137° |
| 2026-05-04 21:30 | 35.62246 | 25.64780 | 8854 ft | 295 kts | 138° |
| 2026-05-04 21:30 | 35.60518 | 25.66152 | 8426 ft | 298 kts | 160° |
| 2026-05-04 21:31 | 35.56592 | 25.65624 | 7698 ft | 286 kts | 216° |
| 2026-05-04 21:31 | 35.55094 | 25.64057 | 7326 ft | 278 kts | 234° |
| 2026-05-04 21:31 | 35.54001 | 25.62138 | 6939 ft | 271 kts | 249° |
| 2026-05-04 21:32 | 35.53527 | 25.59969 | 6558 ft | 258 kts | 274° |
| 2026-05-04 21:32 | 35.53572 | 25.57800 | 6216 ft | 254 kts | 279° |
| 2026-05-04 21:32 | 35.53432 | 25.55621 | 5856 ft | 260 kts | 260° |
| 2026-05-04 21:32 | 35.52713 | 25.53567 | 5535 ft | 264 kts | 245° |
| 2026-05-04 21:33 | 35.51712 | 25.51657 | 5210 ft | 264 kts | 240° |
| 2026-05-04 21:33 | 35.50667 | 25.49827 | 4881 ft | 263 kts | 239° |
| 2026-05-04 21:33 | 35.49639 | 25.47984 | 4557 ft | 261 kts | 240° |
| 2026-05-04 21:33 | 35.48645 | 25.46133 | 4270 ft | 258 kts | 242° |
| 2026-05-04 21:34 | 35.47672 | 25.44278 | 3937 ft | 257 kts | 242° |
| 2026-05-04 21:34 | 35.46695 | 25.42449 | 3583 ft | 258 kts | 238° |
| 2026-05-04 21:34 | 35.45439 | 25.40859 | 3282 ft | 259 kts | 214° |
| 2026-05-04 21:34 | 35.43718 | 25.40244 | 3008 ft | 260 kts | 178° |
| 2026-05-04 21:35 | 35.42041 | 25.40863 | 2976 ft | 244 kts | 150° |
| 2026-05-04 21:35 | 35.40618 | 25.41921 | 2965 ft | 233 kts | 147° |
| 2026-05-04 21:35 | 35.39262 | 25.42955 | 2968 ft | 225 kts | 148° |
| 2026-05-04 21:35 | 35.37836 | 25.43766 | 2966 ft | 226 kts | 168° |
| 2026-05-04 21:36 | 35.36298 | 25.43648 | 2970 ft | 225 kts | 208° |
| 2026-05-04 21:36 | 35.35150 | 25.42397 | 2985 ft | 216 kts | 244° |
| 2026-05-04 21:36 | 35.34537 | 25.40757 | 2955 ft | 205 kts | 252° |
| 2026-05-04 21:36 | 35.34009 | 25.39183 | 2870 ft | 195 kts | 251° |
| 2026-05-04 21:37 | 35.33450 | 25.37663 | 2713 ft | 191 kts | 249° |
| 2026-05-04 21:37 | 35.32910 | 25.36200 | 2505 ft | 188 kts | 253° |
| 2026-05-04 21:37 | 35.32713 | 25.34642 | 2237 ft | 183 kts | 278° |
| 2026-05-04 21:37 | 35.32867 | 25.33097 | 2005 ft | 182 kts | 280° |
| 2026-05-04 21:38 | 35.33011 | 25.31580 | 1970 ft | 173 kts | 278° |
| 2026-05-04 21:38 | 35.33120 | 25.30167 | 1970 ft | 157 kts | 278° |
| 2026-05-04 21:38 | 35.33222 | 25.28820 | 1901 ft | 156 kts | 278° |
| 2026-05-04 21:38 | 35.33318 | 25.27502 | 1637 ft | 147 kts | 277° |
| 2026-05-04 21:39 | 35.33406 | 25.26259 | 1381 ft | 141 kts | 277° |
| 2026-05-04 21:39 | 35.33489 | 25.25069 | 1174 ft | 140 kts | 276° |
| 2026-05-04 21:39 | 35.33574 | 25.23854 | 958 ft | 140 kts | 275° |
| 2026-05-04 21:39 | 35.33656 | 25.22666 | 748 ft | 139 kts | 275° |
| 2026-05-04 21:40 | 35.33738 | 25.21495 | 543 ft | 139 kts | 274° |
| 2026-05-04 21:40 | 35.33818 | 25.20300 | 337 ft | 142 kts | 273° |
| 2026-05-04 21:40 | 35.33899 | 25.19101 | 144 ft | 142 kts | 273° |
| 2026-05-04 21:40 | 35.33971 | 25.18002 | 95 ft | 99 kts | 276° |
| 2026-05-04 21:41 | 35.34015 | 25.17413 | 90 ft | 42 kts | 275° |
| 2026-05-04 21:41 | 35.34012 | 25.17161 | 88 ft | 18 kts | 250° |
| 2026-05-04 21:41 | 35.33976 | 25.17072 | 88 ft | 8 kts | 225° |
| 2026-05-04 21:41 | 35.33940 | 25.17089 | 89 ft | 6 kts | 99° |
| 2026-05-04 21:42 | 35.33934 | 25.17144 | 89 ft | 6 kts | 96° |
| 2026-05-04 21:42 | 35.33931 | 25.17192 | 90 ft | 5 kts | 93° |
| 2026-05-04 21:42 | 35.33929 | 25.17238 | 91 ft | 5 kts | 94° |
| 2026-05-04 21:42 | 35.33925 | 25.17299 | 93 ft | 8 kts | 94° |
| 2026-05-04 21:43 | 35.33920 | 25.17377 | 95 ft | 8 kts | 95° |
| 2026-05-04 21:43 | 35.33915 | 25.17445 | 96 ft | 8 kts | 96° |
| 2026-05-04 21:43 | 35.33910 | 25.17508 | 98 ft | 7 kts | 95° |
| 2026-05-04 21:43 | 35.33906 | 25.17577 | 98 ft | 8 kts | 95° |
| 2026-05-04 21:44 | 35.33877 | 25.17620 | 99 ft | 4 kts | 163° |
| 2026-05-04 21:44 | 35.33851 | 25.17623 | 100 ft | 2 kts | 180° |
| 2026-05-04 21:44 | 35.33831 | 25.17622 | 101 ft | 1 kts | 182° |
| 2026-05-04 21:44 | 35.33809 | 25.17616 | 102 ft | 2 kts | 211° |
| 2026-05-04 21:45 | 35.33802 | 25.17606 | 102 ft | 0 kts | 235° |
| 2026-05-04 21:45 | 35.33796 | 25.17587 | 103 ft | 2 kts | 271° |
| 2026-05-04 21:45 | 35.33800 | 25.17562 | 103 ft | 2 kts | 291° |
| 2026-05-04 21:45 | 35.33805 | 25.17552 | 103 ft | 0 kts | 308° |